Time;durP1;ratioP1;P1;durP2;ratioP2;P2;SDS_P1;SDS_P2;PMS_P1;PMS_P2;Temp;Humidity;BMP_temperature;BMP_pressure;BME280_temperature;BME280_humidity;BME280_pressure;Samples;Min_cycle;Max_cycle;Signal;HPM_P1;HPM_P2
2022/06/01 00:01:29;;;;;;;5.35;4.30;;;;;;;;;;4771186;30;20121;-52
2022/06/01 00:03:56;;;;;;;9.60;4.75;;;;;;;;;;4771446;30;20052;-46
2022/06/01 00:06:23;;;;;;;5.82;4.72;;;;;;;;;;4771490;30;20044;-51
2022/06/01 00:08:51;;;;;;;7.45;4.90;;;;;;;;;;4771524;30;20154;-50
2022/06/01 00:11:18;;;;;;;7.45;5.15;;;;;;;;;;4771183;30;20075;-49
2022/06/01 00:13:46;;;;;;;9.98;5.03;;;;;;;;;;4771160;30;20059;-49
2022/06/01 00:16:13;;;;;;;8.77;4.68;;;;;;;;;;4771112;30;20048;-48
2022/06/01 00:18:40;;;;;;;6.93;5.00;;;;;;;;;;4770993;30;20075;-47
2022/06/01 00:21:08;;;;;;;6.68;4.93;;;;;;;;;;4771147;30;20052;-51
2022/06/01 00:23:36;;;;;;;6.85;5.18;;;;;;;;;;4771022;30;20539;-48
2022/06/01 00:26:03;;;;;;;10.73;5.00;;;;;;;;;;4770983;30;20098;-50
2022/06/01 00:28:31;;;;;;;7.57;6.07;;;;;;;;;;4770586;30;20105;-50
2022/06/01 00:30:58;;;;;;;8.23;6.32;;;;;;;;;;4770182;30;20073;-49
2022/06/01 00:33:26;;;;;;;6.03;5.20;;;;;;;;;;4770947;30;20064;-48
2022/06/01 00:35:55;;;;;;;8.10;5.70;;;;;;;;;;4771131;30;20050;-48
2022/06/01 00:38:22;;;;;;;8.07;5.90;;;;;;;;;;4782121;30;20141;-51
2022/06/01 00:40:50;;;;;;;7.68;5.82;;;;;;;;;;4788526;29;20044;-51
2022/06/01 00:43:26;;;;;;;8.68;5.13;;;;;;;;;;4788459;29;20112;-52
2022/06/01 00:45:53;;;;;;;8.23;6.20;;;;;;;;;;4788550;29;20055;-51
2022/06/01 00:48:27;;;;;;;9.02;6.93;;;;;;;;;;4788406;29;20050;-48
2022/06/01 00:50:54;;;;;;;6.65;5.80;;;;;;;;;;4788560;29;20130;-50
2022/06/01 00:53:26;;;;;;;9.23;6.05;;;;;;;;;;4788547;29;20062;-48
2022/06/01 00:56:01;;;;;;;8.20;5.50;;;;;;;;;;4788567;29;20424;-50
2022/06/01 00:58:34;;;;;;;8.73;6.70;;;;;;;;;;4788375;29;20074;-64
2022/06/01 01:01:01;;;;;;;8.57;6.35;;;;;;;;;;4788165;29;20093;-49
2022/06/01 01:03:35;;;;;;;8.40;7.10;;;;;;;;;;4788360;29;20055;-51
2022/06/01 01:06:26;;;;;;;6.55;5.88;;;;;;;;;;4801837;29;20054;-49
2022/06/01 01:08:54;;;;;;;8.57;5.82;;;;;;;;;;4788345;29;20420;-52
2022/06/01 01:11:55;;;;;;;7.15;5.72;;;;;;;;;;4788406;29;20039;-47
2022/06/01 01:14:29;;;;;;;7.32;6.22;;;;;;;;;;4805851;29;20583;-50
2022/06/01 01:16:59;;;;;;;8.10;5.40;;;;;;;;;;4788104;29;20051;-48
2022/06/01 01:19:35;;;;;;;8.68;5.88;;;;;;;;;;4787810;30;20126;-47
2022/06/01 01:22:20;;;;;;;8.77;5.68;;;;;;;;;;4787850;29;20051;-49
2022/06/01 01:25:06;;;;;;;8.63;6.25;;;;;;;;;;4787567;29;20055;-50
2022/06/01 01:27:33;;;;;;;7.38;5.57;;;;;;;;;;4787904;29;20047;-50
2022/06/01 01:30:00;;;;;;;12.50;8.30;;;;;;;;;;4787727;29;20127;-51
2022/06/01 01:32:27;;;;;;;9.68;6.93;;;;;;;;;;4787549;29;20043;-47
2022/06/01 01:34:54;;;;;;;6.75;6.05;;;;;;;;;;4801649;29;20591;-52
2022/06/01 01:37:27;;;;;;;6.60;5.13;;;;;;;;;;4787667;29;20373;-52
2022/06/01 01:39:56;;;;;;;7.22;6.03;;;;;;;;;;4786574;29;20461;-50
2022/06/01 01:42:24;;;;;;;8.30;6.90;;;;;;;;;;4787714;29;20055;-49
2022/06/01 01:44:57;;;;;;;39.88;24.50;;;;;;;;;;4787666;29;20043;-51
2022/06/01 01:47:25;;;;;;;13.63;10.10;;;;;;;;;;4787841;29;20096;-50
2022/06/01 01:49:52;;;;;;;9.50;7.30;;;;;;;;;;4787383;29;20059;-51
2022/06/01 01:52:19;;;;;;;7.85;6.38;;;;;;;;;;4787410;29;20055;-51
2022/06/01 01:55:32;;;;;;;10.15;7.22;;;;;;;;;;4787292;29;20058;-49
2022/06/01 01:58:11;;;;;;;12.27;6.83;;;;;;;;;;4731870;30;20116;-49
2022/06/01 02:00:47;;;;;;;7.72;6.72;;;;;;;;;;4718057;30;20053;-48
2022/06/01 02:03:27;;;;;;;12.93;5.72;;;;;;;;;;4769690;29;20055;-50
2022/06/01 02:06:14;;;;;;;8.55;6.35;;;;;;;;;;4787409;29;20112;-50
2022/06/01 02:08:49;;;;;;;96.80;56.65;;;;;;;;;;4786999;29;20047;-51
2022/06/01 02:14:22;;;;;;;9.73;6.65;;;;;;;;;;4787060;29;20122;-50
2022/06/01 02:17:13;;;;;;;10.13;6.25;;;;;;;;;;4786717;29;20134;-52
2022/06/01 02:19:55;;;;;;;7.93;6.40;;;;;;;;;;4786972;29;20419;-51
2022/06/01 02:22:24;;;;;;;7.80;6.60;;;;;;;;;;4786981;29;20051;-51
2022/06/01 02:24:51;;;;;;;7.13;6.20;;;;;;;;;;4786884;29;20051;-50
2022/06/01 02:27:19;;;;;;;15.57;6.05;;;;;;;;;;4786851;29;20051;-50
2022/06/01 02:29:57;;;;;;;48.63;32.65;;;;;;;;;;4786790;29;20046;-54
2022/06/01 02:32:28;;;;;;;10.95;8.68;;;;;;;;;;4787025;29;20519;-50
2022/06/01 02:34:59;;;;;;;9.18;6.68;;;;;;;;;;4786821;29;20039;-51
2022/06/01 02:37:29;;;;;;;8.32;6.45;;;;;;;;;;4786589;29;20040;-47
2022/06/01 02:39:59;;;;;;;7.47;5.35;;;;;;;;;;4786647;29;20534;-47
2022/06/01 02:42:26;;;;;;;7.47;5.70;;;;;;;;;;4786367;29;20487;-50
2022/06/01 02:45:06;;;;;;;6.82;6.13;;;;;;;;;;4786834;29;20047;-49
2022/06/01 02:47:37;;;;;;;30.98;20.45;;;;;;;;;;4786551;29;20198;-49
2022/06/01 02:50:07;;;;;;;14.15;10.00;;;;;;;;;;4786705;29;20052;-50
2022/06/01 02:52:34;;;;;;;7.38;6.35;;;;;;;;;;4786385;29;20047;-53
2022/06/01 02:55:05;;;;;;;7.72;5.50;;;;;;;;;;4786066;29;20050;-50
2022/06/01 02:57:33;;;;;;;7.35;5.18;;;;;;;;;;4786481;29;20039;-52
2022/06/01 03:00:07;;;;;;;5.70;5.10;;;;;;;;;;4786495;29;20055;-51
2022/06/01 03:02:39;;;;;;;6.88;5.22;;;;;;;;;;4786283;29;20079;-49
2022/06/01 03:05:07;;;;;;;5.32;4.65;;;;;;;;;;4786430;29;20050;-49
2022/06/01 03:07:35;;;;;;;8.65;4.97;;;;;;;;;;4786470;29;20058;-50
2022/06/01 03:10:02;;;;;;;7.00;4.93;;;;;;;;;;4786293;29;20047;-50
2022/06/01 03:12:29;;;;;;;7.22;4.72;;;;;;;;;;4786278;29;20126;-51
2022/06/01 03:14:56;;;;;;;6.43;4.90;;;;;;;;;;4786251;29;20083;-47
2022/06/01 03:17:23;;;;;;;7.65;4.75;;;;;;;;;;4786479;29;20079;-48
2022/06/01 03:19:51;;;;;;;17.75;13.10;;;;;;;;;;4786133;29;20471;-50
2022/06/01 03:22:18;;;;;;;10.30;6.55;;;;;;;;;;4786331;29;20130;-52
2022/06/01 03:24:45;;;;;;;5.72;4.70;;;;;;;;;;4786249;29;20515;-49
2022/06/01 03:27:12;;;;;;;7.60;4.07;;;;;;;;;;4800148;29;20085;-48
2022/06/01 03:29:40;;;;;;;5.57;4.10;;;;;;;;;;4804161;29;20051;-49
2022/06/01 03:32:07;;;;;;;4.95;4.25;;;;;;;;;;4804090;29;20104;-51
2022/06/01 03:34:35;;;;;;;4.20;3.50;;;;;;;;;;4804075;29;20043;-47
2022/06/01 03:37:02;;;;;;;4.85;3.63;;;;;;;;;;4802598;29;20050;-49
2022/06/01 03:39:30;;;;;;;6.30;3.97;;;;;;;;;;4785014;30;20047;-48
2022/06/01 03:41:59;;;;;;;4.03;3.33;;;;;;;;;;4786044;29;20085;-46
2022/06/01 03:47:13;;;;;;;15.32;7.63;;;;;;;;;;4786158;29;20445;-47
2022/06/01 03:49:42;;;;;;;4.40;3.42;;;;;;;;;;4785976;29;20044;-53
2022/06/01 03:52:10;;;;;;;3.83;3.30;;;;;;;;;;4786065;29;20079;-49
2022/06/01 03:54:39;;;;;;;3.63;2.45;;;;;;;;;;4785730;29;20079;-51
2022/06/01 03:57:07;;;;;;;4.43;3.20;;;;;;;;;;4785968;30;20053;-48
2022/06/01 03:59:35;;;;;;;5.18;3.47;;;;;;;;;;4786089;29;20116;-50
2022/06/01 04:02:04;;;;;;;5.05;2.70;;;;;;;;;;4785826;29;20407;-51
2022/06/01 04:04:33;;;;;;;4.57;3.05;;;;;;;;;;4785972;29;20057;-58
2022/06/01 04:07:00;;;;;;;5.15;3.10;;;;;;;;;;4788494;29;20503;-48
2022/06/01 04:09:29;;;;;;;5.13;2.83;;;;;;;;;;4787644;29;20414;-47
2022/06/01 04:11:56;;;;;;;5.72;3.15;;;;;;;;;;4789245;29;20650;-47
2022/06/01 04:14:24;;;;;;;350.42;240.18;;;;;;;;;;4789125;29;20582;-52
2022/06/01 04:16:52;;;;;;;7.00;5.18;;;;;;;;;;4788949;30;20096;-52
2022/06/01 04:19:19;;;;;;;5.60;3.30;;;;;;;;;;4788867;29;20158;-49
2022/06/01 04:21:49;;;;;;;5.38;3.00;;;;;;;;;;4788879;29;20047;-53
2022/06/01 04:24:21;;;;;;;4.28;3.28;;;;;;;;;;4788901;29;20108;-52
2022/06/01 04:26:48;;;;;;;3.90;3.30;;;;;;;;;;4788754;29;20057;-50
2022/06/01 04:29:15;;;;;;;5.80;3.38;;;;;;;;;;4788816;29;20051;-50
2022/06/01 04:31:44;;;;;;;3.65;2.65;;;;;;;;;;4788830;29;20079;-47
2022/06/01 04:34:12;;;;;;;3.97;2.88;;;;;;;;;;4788612;29;20043;-49
2022/06/01 04:36:40;;;;;;;37.30;23.23;;;;;;;;;;4788588;29;20125;-52
2022/06/01 04:39:09;;;;;;;7.32;4.05;;;;;;;;;;4788593;29;20411;-52
2022/06/01 04:41:36;;;;;;;7.75;2.78;;;;;;;;;;4788703;29;20408;-50
2022/06/01 04:44:04;;;;;;;6.72;2.50;;;;;;;;;;4788491;29;20142;-48
2022/06/01 04:46:31;;;;;;;4.05;2.58;;;;;;;;;;4788352;29;20047;-49
2022/06/01 04:48:59;;;;;;;3.70;3.00;;;;;;;;;;4788364;29;20043;-50
2022/06/01 04:51:26;;;;;;;3.92;2.42;;;;;;;;;;4788623;29;20079;-50
2022/06/01 04:53:54;;;;;;;6.15;2.67;;;;;;;;;;4788609;29;20128;-49
2022/06/01 04:56:21;;;;;;;2.55;2.10;;;;;;;;;;4788272;29;20063;-52
2022/06/01 04:58:49;;;;;;;4.35;2.17;;;;;;;;;;4788227;29;20114;-49
2022/06/01 05:01:16;;;;;;;4.47;2.20;;;;;;;;;;4788296;29;20508;-50
2022/06/01 05:03:43;;;;;;;3.40;2.40;;;;;;;;;;4788010;29;20082;-51
2022/06/01 05:06:10;;;;;;;73.43;46.83;;;;;;;;;;4788271;29;20047;-46
2022/06/01 05:08:38;;;;;;;6.57;4.10;;;;;;;;;;4788128;29;20083;-50
2022/06/01 05:11:05;;;;;;;3.88;2.30;;;;;;;;;;4788245;29;20051;-50
2022/06/01 05:13:33;;;;;;;4.93;2.40;;;;;;;;;;4788022;29;20040;-51
2022/06/01 05:16:01;;;;;;;3.08;2.10;;;;;;;;;;4787594;29;20055;-49
2022/06/01 05:18:29;;;;;;;15.60;8.10;;;;;;;;;;4787893;29;20108;-49
2022/06/01 05:20:57;;;;;;;6.50;3.25;;;;;;;;;;4788119;29;20061;-52
2022/06/01 05:23:24;;;;;;;4.50;2.08;;;;;;;;;;4788057;29;20081;-49
2022/06/01 05:25:54;;;;;;;2.60;2.10;;;;;;;;;;4788029;29;20050;-51
2022/06/01 05:28:26;;;;;;;2.80;2.20;;;;;;;;;;4787914;29;20051;-51
2022/06/01 05:31:05;;;;;;;2.72;2.30;;;;;;;;;;4787852;29;20099;-50
2022/06/01 05:33:33;;;;;;;4.82;2.40;;;;;;;;;;4787859;29;20043;-53
2022/06/01 05:36:00;;;;;;;3.40;2.05;;;;;;;;;;4787729;29;20462;-55
2022/06/01 05:38:28;;;;;;;3.58;2.10;;;;;;;;;;4787568;29;20051;-48
2022/06/01 05:40:55;;;;;;;3.60;2.10;;;;;;;;;;4787884;29;20086;-50
2022/06/01 05:43:23;;;;;;;3.10;1.90;;;;;;;;;;4787573;29;20059;-49
2022/06/01 05:45:51;;;;;;;3.88;2.10;;;;;;;;;;4787413;29;20059;-52
2022/06/01 05:48:19;;;;;;;7.53;2.15;;;;;;;;;;4786904;29;20126;-48
2022/06/01 05:50:47;;;;;;;3.42;2.00;;;;;;;;;;4787077;29;20066;-50
2022/06/01 05:53:14;;;;;;;3.05;2.15;;;;;;;;;;4786386;29;20531;-51
2022/06/01 05:55:42;;;;;;;2.78;1.77;;;;;;;;;;4787082;29;20134;-51
2022/06/01 05:58:27;;;;;;;5.20;1.85;;;;;;;;;;4787297;29;20061;-53
2022/06/01 06:00:56;;;;;;;5.50;2.03;;;;;;;;;;4787434;29;20053;-49
2022/06/01 06:03:23;;;;;;;2.90;1.95;;;;;;;;;;4787228;29;20104;-48
2022/06/01 06:06:14;;;;;;;4.80;2.33;;;;;;;;;;4787251;29;20082;-49
2022/06/01 06:08:44;;;;;;;2.88;2.00;;;;;;;;;;4786966;29;20118;-52
2022/06/01 06:11:21;;;;;;;3.25;1.92;;;;;;;;;;4787161;29;20051;-49
2022/06/01 06:13:48;;;;;;;2.60;1.80;;;;;;;;;;4786360;29;20086;-47
2022/06/01 06:16:16;;;;;;;3.85;2.58;;;;;;;;;;4786904;29;20889;-52
2022/06/01 06:18:44;;;;;;;5.47;1.80;;;;;;;;;;4786388;29;20078;-48
2022/06/01 06:21:12;;;;;;;4.15;2.00;;;;;;;;;;4786702;29;20178;-53
2022/06/01 06:23:39;;;;;;;2.25;1.70;;;;;;;;;;4786903;29;20074;-52
2022/06/01 06:26:07;;;;;;;5.95;1.60;;;;;;;;;;4786538;29;20126;-47
2022/06/01 06:28:35;;;;;;;4.95;2.13;;;;;;;;;;4786032;29;20039;-53
2022/06/01 06:31:02;;;;;;;6.15;1.65;;;;;;;;;;4786573;29;20058;-51
2022/06/01 06:33:30;;;;;;;2.83;1.70;;;;;;;;;;4786521;29;20112;-49
2022/06/01 06:35:57;;;;;;;4.97;1.67;;;;;;;;;;4786605;29;20051;-52
2022/06/01 06:38:27;;;;;;;2.78;1.48;;;;;;;;;;4786780;29;20463;-46
2022/06/01 06:40:58;;;;;;;3.47;2.25;;;;;;;;;;4786692;29;20075;-48
2022/06/01 06:43:27;;;;;;;2.42;1.50;;;;;;;;;;4786703;29;20063;-49
2022/06/01 06:46:00;;;;;;;4.15;1.52;;;;;;;;;;4786747;29;20547;-48
2022/06/01 06:48:28;;;;;;;2.88;1.67;;;;;;;;;;4786790;29;20468;-51
2022/06/01 06:50:57;;;;;;;8.50;1.20;;;;;;;;;;4786627;29;20043;-48
2022/06/01 06:53:24;;;;;;;2.47;1.60;;;;;;;;;;4786714;29;20500;-51
2022/06/01 06:55:52;;;;;;;2.08;1.33;;;;;;;;;;4786491;29;20054;-47
2022/06/01 06:58:19;;;;;;;2.92;1.20;;;;;;;;;;4786226;29;20129;-51
2022/06/01 07:00:46;;;;;;;4.00;1.20;;;;;;;;;;4786431;29;20512;-51
2022/06/01 07:03:14;;;;;;;2.92;1.50;;;;;;;;;;4785187;29;20051;-53
2022/06/01 07:08:27;;;;;;;3.78;1.20;;;;;;;;;;4785199;29;20055;-54
2022/06/01 07:10:56;;;;;;;2.38;1.33;;;;;;;;;;4785206;29;20151;-52
2022/06/01 07:13:23;;;;;;;6.30;1.60;;;;;;;;;;4798772;29;20055;-49
2022/06/01 07:16:13;;;;;;;5.32;1.50;;;;;;;;;;4784825;29;20055;-50
2022/06/01 07:18:43;;;;;;;2.20;1.20;;;;;;;;;;4784779;29;20412;-53
2022/06/01 07:21:14;;;;;;;3.65;1.48;;;;;;;;;;4784654;29;20047;-48
2022/06/01 07:23:42;;;;;;;6.28;1.58;;;;;;;;;;4784925;29;20135;-49
2022/06/01 07:26:14;;;;;;;3.47;1.70;;;;;;;;;;4784753;30;20100;-52
2022/06/01 07:28:41;;;;;;;4.97;1.42;;;;;;;;;;4784773;29;20047;-48
2022/06/01 07:31:09;;;;;;;4.32;1.30;;;;;;;;;;4784875;29;20039;-48
2022/06/01 07:33:36;;;;;;;3.47;1.45;;;;;;;;;;4784664;29;20055;-47
2022/06/01 07:36:07;;;;;;;2.25;1.30;;;;;;;;;;4784738;29;20124;-48
2022/06/01 07:44:12;;;;;;;2.35;1.50;;;;;;;;;;4788371;29;20059;-48
2022/06/01 07:46:39;;;;;;;2.33;1.38;;;;;;;;;;4789414;29;20126;-50
2022/06/01 07:49:13;;;;;;;8.38;1.50;;;;;;;;;;4788332;30;20055;-49
2022/06/01 07:52:00;;;;;;;3.13;1.27;;;;;;;;;;4803108;29;20511;-49
2022/06/01 07:54:28;;;;;;;5.45;1.48;;;;;;;;;;4789343;29;20082;-50
2022/06/01 07:56:55;;;;;;;6.15;1.70;;;;;;;;;;4789505;29;20051;-49
2022/06/01 07:59:22;;;;;;;3.70;1.42;;;;;;;;;;4789310;29;20053;-51
2022/06/01 08:01:49;;;;;;;8.45;1.42;;;;;;;;;;4788989;29;20508;-48
2022/06/01 08:04:16;;;;;;;3.13;1.42;;;;;;;;;;4789287;29;20039;-50
2022/06/01 08:06:44;;;;;;;2.85;1.35;;;;;;;;;;4789150;29;20047;-49
2022/06/01 08:09:25;;;;;;;3.38;1.70;;;;;;;;;;4789313;29;20051;-49
2022/06/01 08:14:37;;;;;;;5.40;1.48;;;;;;;;;;4788884;29;20116;-50
2022/06/01 08:17:05;;;;;;;5.47;1.65;;;;;;;;;;4789052;29;20134;-50
2022/06/01 08:19:32;;;;;;;6.00;1.80;;;;;;;;;;4788840;29;20071;-50
2022/06/01 08:21:59;;;;;;;4.47;2.17;;;;;;;;;;4788734;29;20051;-49
2022/06/01 08:24:27;;;;;;;3.28;1.50;;;;;;;;;;4789134;29;20498;-50
2022/06/01 08:26:56;;;;;;;3.00;1.92;;;;;;;;;;4788821;29;20050;-50
2022/06/01 08:29:23;;;;;;;3.92;1.85;;;;;;;;;;4789106;29;20397;-53
2022/06/01 08:31:50;;;;;;;3.17;1.70;;;;;;;;;;4788894;29;20082;-53
2022/06/01 08:34:17;;;;;;;4.88;1.30;;;;;;;;;;4788951;29;20173;-50
2022/06/01 08:36:46;;;;;;;2.50;1.38;;;;;;;;;;4788623;29;20142;-50
2022/06/01 08:39:13;;;;;;;5.18;1.40;;;;;;;;;;4788578;29;20055;-50
2022/06/01 08:41:40;;;;;;;3.60;1.35;;;;;;;;;;4788461;29;20089;-54
2022/06/01 08:44:23;;;;;;;3.08;0.93;;;;;;;;;;4788416;29;20064;-50
2022/06/01 08:46:52;;;;;;;5.72;1.55;;;;;;;;;;4788673;29;20082;-49
2022/06/01 08:49:26;;;;;;;4.28;1.30;;;;;;;;;;4788739;29;20044;-51
2022/06/01 08:51:54;;;;;;;3.35;1.45;;;;;;;;;;4787788;29;20511;-51
2022/06/01 08:54:22;;;;;;;3.08;1.20;;;;;;;;;;4788711;30;20103;-52
2022/06/01 08:56:53;;;;;;;3.92;1.10;;;;;;;;;;4788262;29;20511;-50
2022/06/01 08:59:40;;;;;;;3.95;1.27;;;;;;;;;;4788230;29;20055;-48
2022/06/01 09:02:31;;;;;;;4.22;1.05;;;;;;;;;;4788261;29;20058;-49
2022/06/01 09:05:11;;;;;;;2.03;1.08;;;;;;;;;;4788414;29;20046;-48
2022/06/01 09:07:45;;;;;;;3.05;1.42;;;;;;;;;;4788447;29;20104;-49
2022/06/01 09:10:43;;;;;;;4.50;1.10;;;;;;;;;;4788163;29;20105;-50
2022/06/01 09:13:15;;;;;;;1.63;1.17;;;;;;;;;;4788152;30;20487;-50
2022/06/01 09:15:49;;;;;;;2.75;1.15;;;;;;;;;;4787991;29;20051;-51
2022/06/01 09:18:20;;;;;;;4.47;1.30;;;;;;;;;;4786936;30;20086;-48
2022/06/01 09:23:36;;;;;;;4.75;1.20;;;;;;;;;;4788005;29;20051;-50
2022/06/01 09:26:05;;;;;;;1.75;1.10;;;;;;;;;;4787728;29;20495;-50
2022/06/01 09:28:39;;;;;;;4.88;1.08;;;;;;;;;;4787800;29;20607;-50
2022/06/01 09:31:41;;;;;;;2.13;1.05;;;;;;;;;;4787815;29;20047;-49
2022/06/01 09:34:26;;;;;;;2.97;1.60;;;;;;;;;;4787526;29;20075;-52
2022/06/01 09:37:05;;;;;;;3.80;1.20;;;;;;;;;;4787669;29;20055;-47
2022/06/01 09:39:33;;;;;;;2.83;1.38;;;;;;;;;;4787618;29;20120;-52
2022/06/01 09:42:25;;;;;;;4.03;1.70;;;;;;;;;;4787235;29;20039;-51
2022/06/01 09:44:55;;;;;;;2.97;2.20;;;;;;;;;;4787615;29;20401;-50
2022/06/01 09:47:30;;;;;;;10.15;3.00;;;;;;;;;;4787395;29;20055;-52
2022/06/01 09:49:59;;;;;;;4.47;2.00;;;;;;;;;;4787721;29;20213;-48
2022/06/01 09:52:34;;;;;;;3.60;1.88;;;;;;;;;;4787498;29;20048;-52
2022/06/01 09:55:16;;;;;;;3.00;1.33;;;;;;;;;;4787453;29;20055;-51
2022/06/01 09:57:43;;;;;;;3.35;1.30;;;;;;;;;;4787203;29;20043;-49
2022/06/01 10:06:12;;;;;;;2.97;1.40;;;;;;;;;;4787111;29;20055;-49
2022/06/01 10:08:42;;;;;;;4.43;1.42;;;;;;;;;;4787051;29;20055;-50
2022/06/01 10:11:30;;;;;;;6.90;1.60;;;;;;;;;;4787067;29;20073;-51
2022/06/01 10:14:26;;;;;;;2.13;1.35;;;;;;;;;;4787217;29;20050;-54
2022/06/01 10:17:05;;;;;;;2.95;1.30;;;;;;;;;;4786962;30;20059;-50
2022/06/01 10:19:39;;;;;;;2.15;1.23;;;;;;;;;;4786942;29;20074;-48
2022/06/01 10:22:13;;;;;;;3.25;1.20;;;;;;;;;;4786992;29;20039;-49
2022/06/01 10:25:01;;;;;;;3.58;1.30;;;;;;;;;;4786865;29;20500;-48
2022/06/01 10:27:35;;;;;;;2.70;1.13;;;;;;;;;;4786988;29;20077;-50
2022/06/01 10:30:13;;;;;;;5.25;1.55;;;;;;;;;;4786579;29;20043;-47
2022/06/01 10:33:14;;;;;;;1.85;1.13;;;;;;;;;;4786515;29;20043;-49
2022/06/01 10:35:47;;;;;;;2.72;1.30;;;;;;;;;;4786915;29;20055;-53
2022/06/01 10:38:25;;;;;;;4.35;1.15;;;;;;;;;;4797408;29;20511;-49
2022/06/01 10:41:00;;;;;;;3.65;1.02;;;;;;;;;;4768794;30;20048;-50
2022/06/01 10:43:46;;;;;;;4.50;1.17;;;;;;;;;;4768858;29;20079;-49
2022/06/01 10:46:47;;;;;;;5.88;1.10;;;;;;;;;;4768633;30;20062;-50
2022/06/01 10:49:28;;;;;;;4.10;1.00;;;;;;;;;;4768757;30;20104;-50
2022/06/01 10:52:16;;;;;;;1.85;0.95;;;;;;;;;;4768936;30;20087;-52
2022/06/01 10:54:57;;;;;;;2.55;1.00;;;;;;;;;;4768714;30;20055;-48
2022/06/01 10:57:25;;;;;;;1.58;0.85;;;;;;;;;;4768788;30;20055;-48
2022/06/01 10:59:52;;;;;;;8.60;1.38;;;;;;;;;;4768707;29;20408;-51
2022/06/01 11:02:56;;;;;;;4.25;1.40;;;;;;;;;;4768803;30;20048;-53
2022/06/01 11:05:26;;;;;;;4.07;2.10;;;;;;;;;;4768374;30;20048;-48
2022/06/01 11:08:09;;;;;;;2.65;1.65;;;;;;;;;;4768287;30;20500;-49
2022/06/01 11:11:05;;;;;;;5.25;1.80;;;;;;;;;;4768278;30;20050;-51
2022/06/01 11:14:09;;;;;;;3.40;1.35;;;;;;;;;;4768495;30;20517;-47
2022/06/01 11:16:51;;;;;;;;;;;;;;;;;;4772450;30;20040;-48
2022/06/01 11:19:21;;;;;;;4.55;1.33;;;;;;;;;;4772374;30;19925;-51
2022/06/01 11:22:17;;;;;;;6.40;0.98;;;;;;;;;;4771917;30;20044;-50
2022/06/01 11:24:53;;;;;;;3.60;1.00;;;;;;;;;;4775312;29;20482;-52
2022/06/01 11:27:20;;;;;;;3.17;1.30;;;;;;;;;;4771859;29;20441;-49
2022/06/01 11:30:00;;;;;;;2.75;0.82;;;;;;;;;;4771756;30;20101;-49
2022/06/01 11:32:50;;;;;;;2.92;1.00;;;;;;;;;;4771873;30;20044;-49
2022/06/01 11:35:20;;;;;;;3.13;0.80;;;;;;;;;;4771982;30;20105;-49
2022/06/01 11:38:00;;;;;;;2.85;1.10;;;;;;;;;;4778805;30;20051;-50
2022/06/01 11:40:29;;;;;;;3.28;1.08;;;;;;;;;;4789908;29;20508;-53
2022/06/01 11:43:29;;;;;;;2.53;0.90;;;;;;;;;;4788511;30;20104;-49
2022/06/01 11:45:59;;;;;;;3.25;0.90;;;;;;;;;;4785327;30;20062;-53
2022/06/01 11:48:36;;;;;;;2.47;0.93;;;;;;;;;;4789723;29;20055;-57
2022/06/01 11:51:16;;;;;;;3.90;1.02;;;;;;;;;;4789281;29;20052;-48
2022/06/01 11:53:44;;;;;;;1.50;0.77;;;;;;;;;;4789477;29;20120;-50
2022/06/01 11:56:30;;;;;;;3.55;0.90;;;;;;;;;;4789456;29;20043;-50
2022/06/01 11:59:22;;;;;;;3.83;1.00;;;;;;;;;;4789572;29;20596;-51
2022/06/01 12:02:01;;;;;;;2.88;0.93;;;;;;;;;;4788607;29;20048;-48
2022/06/01 12:04:51;;;;;;;6.07;1.73;;;;;;;;;;4789364;29;20050;-53
2022/06/01 12:07:24;;;;;;;2.17;0.85;;;;;;;;;;4789120;29;20051;-51
2022/06/01 12:10:19;;;;;;;1.50;0.70;;;;;;;;;;4788999;29;20071;-49
2022/06/01 12:12:55;;;;;;;1.35;0.77;;;;;;;;;;4788468;29;20556;-48
2022/06/01 12:15:29;;;;;;;2.35;1.10;;;;;;;;;;4789096;29;20051;-46
2022/06/01 12:18:29;;;;;;;2.33;0.82;;;;;;;;;;4789057;29;20062;-49
2022/06/01 12:21:15;;;;;;;3.15;1.10;;;;;;;;;;4789049;29;20055;-52
2022/06/01 12:30:00;;;;;;;5.72;1.48;;;;;;;;;;4788918;29;20154;-54
2022/06/01 12:32:30;;;;;;;2.55;1.10;;;;;;;;;;4789121;29;20508;-52
2022/06/01 12:35:12;;;;;;;2.28;0.70;;;;;;;;;;4788903;29;20566;-51
2022/06/01 12:37:53;;;;;;;3.78;0.80;;;;;;;;;;4782696;29;20062;-51
2022/06/01 12:40:21;;;;;;;2.42;0.98;;;;;;;;;;4770911;30;20052;-49
2022/06/01 12:42:55;;;;;;;2.42;0.88;;;;;;;;;;4770599;30;20831;-51
2022/06/01 12:45:28;;;;;;;64.22;38.20;;;;;;;;;;4770653;30;20048;-48
2022/06/01 12:48:04;;;;;;;4.07;1.25;;;;;;;;;;4771004;30;20048;-48
2022/06/01 12:50:45;;;;;;;2.35;0.90;;;;;;;;;;4770570;30;20074;-48
2022/06/01 12:53:25;;;;;;;4.22;1.02;;;;;;;;;;4770761;30;20115;-50
2022/06/01 12:56:08;;;;;;;2.58;1.02;;;;;;;;;;4770526;30;20508;-53
2022/06/01 12:58:36;;;;;;;4.20;0.85;;;;;;;;;;4770317;30;20052;-50
2022/06/01 13:01:04;;;;;;;2.08;0.80;;;;;;;;;;4770557;30;20083;-49
2022/06/01 13:03:33;;;;;;;1.20;0.75;;;;;;;;;;4770311;30;20082;-49
2022/06/01 13:06:10;;;;;;;1.67;0.90;;;;;;;;;;4770268;30;20051;-48
2022/06/01 13:08:39;;;;;;;1.33;0.82;;;;;;;;;;4770404;30;20051;-53
2022/06/01 13:11:23;;;;;;;2.88;1.23;;;;;;;;;;4770340;30;20047;-51
2022/06/01 13:13:51;;;;;;;4.63;1.20;;;;;;;;;;4770319;30;20055;-50
2022/06/01 13:16:23;;;;;;;5.57;0.90;;;;;;;;;;4770313;30;20120;-50
2022/06/01 13:18:51;;;;;;;2.65;0.80;;;;;;;;;;4769903;29;20432;-60
2022/06/01 13:21:31;;;;;;;1.83;0.77;;;;;;;;;;4770271;30;20068;-52
2022/06/01 13:24:03;;;;;;;2.00;1.02;;;;;;;;;;4770382;30;20521;-50
2022/06/01 13:26:48;;;;;;;5.10;0.90;;;;;;;;;;4770056;30;20085;-51
2022/06/01 13:29:22;;;;;;;1.55;0.80;;;;;;;;;;4781089;30;20477;-50
2022/06/01 13:31:54;;;;;;;1.00;0.80;;;;;;;;;;4788212;29;20571;-47
2022/06/01 13:34:31;;;;;;;1.98;0.80;;;;;;;;;;4787799;29;20084;-48
2022/06/01 13:37:10;;;;;;;2.38;0.80;;;;;;;;;;4787586;29;20066;-51
2022/06/01 13:39:47;;;;;;;5.10;0.90;;;;;;;;;;4801273;29;20141;-49
2022/06/01 13:42:32;;;;;;;3.20;0.90;;;;;;;;;;4787691;29;20058;-48
2022/06/01 13:45:31;;;;;;;1.23;0.80;;;;;;;;;;4787679;29;20130;-47
2022/06/01 13:48:02;;;;;;;1.88;1.00;;;;;;;;;;4787796;29;20055;-49
2022/06/01 13:50:37;;;;;;;2.78;0.75;;;;;;;;;;4787534;29;20057;-49
2022/06/01 13:53:18;;;;;;;3.63;0.90;;;;;;;;;;4787474;29;20063;-51
2022/06/01 13:56:06;;;;;;;1.67;0.93;;;;;;;;;;4787527;29;20063;-52
2022/06/01 13:58:37;;;;;;;1.90;0.90;;;;;;;;;;4787101;29;20051;-50
2022/06/01 14:01:26;;;;;;;6.50;0.90;;;;;;;;;;4787438;29;20040;-49
2022/06/01 14:03:57;;;;;;;2.17;0.73;;;;;;;;;;4787387;29;20503;-48
2022/06/01 14:06:39;;;;;;;5.13;0.80;;;;;;;;;;4787365;29;20047;-51
2022/06/01 14:09:10;;;;;;;1.85;0.82;;;;;;;;;;4787378;29;20074;-48
2022/06/01 14:11:37;;;;;;;1.70;0.73;;;;;;;;;;4787207;29;20045;-51
2022/06/01 14:14:11;;;;;;;0.93;0.70;;;;;;;;;;4787089;29;20047;-50
2022/06/01 14:16:48;;;;;;;2.50;1.00;;;;;;;;;;4800490;29;20083;-48
2022/06/01 14:19:16;;;;;;;2.35;0.80;;;;;;;;;;4787000;29;20575;-52
2022/06/01 14:21:43;;;;;;;50.17;38.20;;;;;;;;;;4786902;29;20134;-50
2022/06/01 14:24:10;;;;;;;2.97;1.02;;;;;;;;;;4787006;29;20515;-53
2022/06/01 14:29:24;;;;;;;1.63;1.10;;;;;;;;;;4786730;29;20059;-46
2022/06/01 14:31:52;;;;;;;322.17;216.45;;;;;;;;;;4786898;29;20105;-50
2022/06/01 14:34:20;;;;;;;4.70;2.40;;;;;;;;;;4786911;29;20150;-50
2022/06/01 14:36:47;;;;;;;1.73;0.95;;;;;;;;;;4786750;29;20439;-53
2022/06/01 14:39:15;;;;;;;1.30;0.70;;;;;;;;;;4786687;29;20500;-50
2022/06/01 14:41:45;;;;;;;14.68;7.47;;;;;;;;;;4786753;29;20457;-47
2022/06/01 14:44:16;;;;;;;6.38;2.15;;;;;;;;;;4786351;29;20116;-51
2022/06/01 14:46:48;;;;;;;2.45;0.95;;;;;;;;;;4786745;29;20054;-51
2022/06/01 14:49:17;;;;;;;3.88;0.85;;;;;;;;;;4786108;29;20047;-50
2022/06/01 14:51:54;;;;;;;1.30;0.70;;;;;;;;;;4786752;29;20055;-53
2022/06/01 14:54:28;;;;;;;3.50;0.88;;;;;;;;;;4786487;29;20542;-51
2022/06/01 14:56:56;;;;;;;5.80;1.10;;;;;;;;;;4786727;29;20535;-48
2022/06/01 14:59:27;;;;;;;1.30;0.68;;;;;;;;;;4786644;29;20050;-50
2022/06/01 15:01:56;;;;;;;1.55;0.70;;;;;;;;;;4786246;29;20127;-51
2022/06/01 15:04:33;;;;;;;2.70;1.00;;;;;;;;;;4786385;29;20142;-48
2022/06/01 15:07:01;;;;;;;62.35;35.97;;;;;;;;;;4786416;29;20043;-54
2022/06/01 15:09:28;;;;;;;6.38;2.65;;;;;;;;;;4786556;29;20043;-52
2022/06/01 15:11:56;;;;;;;3.00;0.80;;;;;;;;;;4786341;29;20047;-51
2022/06/01 15:14:23;;;;;;;3.70;0.73;;;;;;;;;;4786244;29;20055;-51
2022/06/01 15:16:59;;;;;;;1.13;0.82;;;;;;;;;;4786231;29;20043;-49
2022/06/01 15:19:34;;;;;;;2.40;0.60;;;;;;;;;;4786417;29;20079;-52
2022/06/01 15:22:02;;;;;;;2.75;0.63;;;;;;;;;;4786420;29;20052;-48
2022/06/01 15:24:29;;;;;;;2.67;0.95;;;;;;;;;;4786395;29;20047;-48
2022/06/01 15:26:57;;;;;;;2.45;1.08;;;;;;;;;;4786202;29;20039;-51
2022/06/01 15:40:32;;;;;;;1.65;0.93;;;;;;;;;;4786228;29;20058;-52
2022/06/01 15:42:59;;;;;;;1.48;0.75;;;;;;;;;;4786294;29;20051;-51
2022/06/01 15:45:39;;;;;;;1.48;0.65;;;;;;;;;;4786134;29;20050;-53
2022/06/01 15:48:09;;;;;;;1.92;0.80;;;;;;;;;;4786143;29;20048;-51
2022/06/01 15:50:39;;;;;;;4.53;0.98;;;;;;;;;;4785855;29;20039;-48
2022/06/01 15:53:07;;;;;;;0.82;0.60;;;;;;;;;;4786013;29;20047;-53
2022/06/01 15:55:34;;;;;;;2.65;0.75;;;;;;;;;;4785981;29;20104;-49
2022/06/01 15:58:02;;;;;;;1.52;0.75;;;;;;;;;;4786119;29;20066;-47
2022/06/01 16:00:30;;;;;;;1.73;0.60;;;;;;;;;;4786714;29;20123;-51